sensor_id;sensor_type;location;lat;lon;timestamp;pressure;altitude;pressure_sealevel;temperature;humidity
56944;BME280;42848;42.524;12.052;2023-03-05T00:02:08;96346.16;;;6.21;89.35
56944;BME280;42848;42.524;12.052;2023-03-05T00:04:33;96348.75;;;6.12;88.78
56944;BME280;42848;42.524;12.052;2023-03-05T00:06:59;96345.19;;;6.17;88.97
56944;BME280;42848;42.524;12.052;2023-03-05T00:09:25;96343.38;;;6.26;89.62
56944;BME280;42848;42.524;12.052;2023-03-05T00:11:51;96347.38;;;6.15;89.47
56944;BME280;42848;42.524;12.052;2023-03-05T00:14:17;96337.72;;;6.14;88.78
56944;BME280;42848;42.524;12.052;2023-03-05T00:16:43;96343.59;;;6.16;88.33
56944;BME280;42848;42.524;12.052;2023-03-05T00:19:09;96344.78;;;6.23;87.27
56944;BME280;42848;42.524;12.052;2023-03-05T00:21:37;96348.69;;;6.17;88.34
56944;BME280;42848;42.524;12.052;2023-03-05T00:24:06;96359.63;;;6.21;87.33
56944;BME280;42848;42.524;12.052;2023-03-05T00:26:35;96350.75;;;6.20;88.23
56944;BME280;42848;42.524;12.052;2023-03-05T00:29:04;96356.44;;;6.19;87.56
56944;BME280;42848;42.524;12.052;2023-03-05T00:31:31;96361.44;;;6.25;87.49
56944;BME280;42848;42.524;12.052;2023-03-05T00:34:04;96358.97;;;6.15;87.25
56944;BME280;42848;42.524;12.052;2023-03-05T00:36:31;96360.94;;;6.10;87.93
56944;BME280;42848;42.524;12.052;2023-03-05T00:38:57;96357.38;;;6.14;87.99
56944;BME280;42848;42.524;12.052;2023-03-05T00:41:24;96356.97;;;6.07;88.24
56944;BME280;42848;42.524;12.052;2023-03-05T00:43:49;96362.34;;;6.21;88.92
56944;BME280;42848;42.524;12.052;2023-03-05T00:46:16;96348.69;;;6.31;88.80
56944;BME280;42848;42.524;12.052;2023-03-05T00:48:41;96354.06;;;6.31;89.62
56944;BME280;42848;42.524;12.052;2023-03-05T00:51:07;96353.16;;;6.49;91.09
56944;BME280;42848;42.524;12.052;2023-03-05T00:53:34;96344.59;;;6.70;89.39
56944;BME280;42848;42.524;12.052;2023-03-05T00:56:00;96343.59;;;6.66;89.98
56944;BME280;42848;42.524;12.052;2023-03-05T00:58:26;96337.78;;;6.72;90.01
56944;BME280;42848;42.524;12.052;2023-03-05T01:00:51;96351.47;;;6.76;89.95
56944;BME280;42848;42.524;12.052;2023-03-05T01:03:18;96347.44;;;6.87;88.97
56944;BME280;42848;42.524;12.052;2023-03-05T01:05:44;96344.78;;;6.23;91.64
56944;BME280;42848;42.524;12.052;2023-03-05T01:08:10;96346.97;;;6.35;92.36
56944;BME280;42848;42.524;12.052;2023-03-05T01:10:36;96350.56;;;6.17;93.38
56944;BME280;42848;42.524;12.052;2023-03-05T01:13:02;96338.91;;;6.57;90.78
56944;BME280;42848;42.524;12.052;2023-03-05T01:15:27;96339.97;;;6.34;90.61
56944;BME280;42848;42.524;12.052;2023-03-05T01:17:53;96330.00;;;6.21;91.14
56944;BME280;42848;42.524;12.052;2023-03-05T01:20:20;96338.81;;;6.13;91.92
56944;BME280;42848;42.524;12.052;2023-03-05T01:22:47;96333.81;;;6.06;90.25
56944;BME280;42848;42.524;12.052;2023-03-05T01:25:14;96329.63;;;6.14;88.82
56944;BME280;42848;42.524;12.052;2023-03-05T01:27:40;96330.31;;;6.06;89.75
56944;BME280;42848;42.524;12.052;2023-03-05T01:30:07;96325.22;;;5.90;89.65
56944;BME280;42848;42.524;12.052;2023-03-05T01:32:34;96325.13;;;5.95;89.12
56944;BME280;42848;42.524;12.052;2023-03-05T01:35:00;96326.44;;;5.98;86.63
56944;BME280;42848;42.524;12.052;2023-03-05T01:37:26;96321.44;;;5.91;87.28
56944;BME280;42848;42.524;12.052;2023-03-05T01:39:52;96321.94;;;5.93;87.08
56944;BME280;42848;42.524;12.052;2023-03-05T01:42:18;96313.66;;;6.04;86.20
56944;BME280;42848;42.524;12.052;2023-03-05T01:45:01;96315.97;;;5.96;86.50
56944;BME280;42848;42.524;12.052;2023-03-05T01:47:28;96308.47;;;5.93;86.65
56944;BME280;42848;42.524;12.052;2023-03-05T01:49:54;96313.63;;;5.90;86.97
56944;BME280;42848;42.524;12.052;2023-03-05T01:52:22;96304.84;;;5.84;87.34
56944;BME280;42848;42.524;12.052;2023-03-05T01:54:56;96307.25;;;5.72;88.53
56944;BME280;42848;42.524;12.052;2023-03-05T01:57:29;96300.75;;;5.73;88.67
56944;BME280;42848;42.524;12.052;2023-03-05T02:00:00;96302.16;;;5.84;88.08
56944;BME280;42848;42.524;12.052;2023-03-05T02:02:27;96302.88;;;5.76;88.14
56944;BME280;42848;42.524;12.052;2023-03-05T02:04:58;96303.03;;;5.66;89.10
56944;BME280;42848;42.524;12.052;2023-03-05T02:07:25;96304.84;;;5.70;89.56
56944;BME280;42848;42.524;12.052;2023-03-05T02:09:51;96305.44;;;5.67;90.86
56944;BME280;42848;42.524;12.052;2023-03-05T02:12:17;96303.03;;;5.66;90.73
56944;BME280;42848;42.524;12.052;2023-03-05T02:14:45;96301.84;;;5.58;90.98
56944;BME280;42848;42.524;12.052;2023-03-05T02:17:13;96297.88;;;5.69;90.41
56944;BME280;42848;42.524;12.052;2023-03-05T02:19:51;96301.13;;;5.66;90.73
56944;BME280;42848;42.524;12.052;2023-03-05T02:22:19;96300.88;;;5.68;90.28
56944;BME280;42848;42.524;12.052;2023-03-05T02:24:45;96298.84;;;5.74;90.24
56944;BME280;42848;42.524;12.052;2023-03-05T02:27:12;96294.28;;;5.60;91.18
56944;BME280;42848;42.524;12.052;2023-03-05T02:29:43;96297.75;;;5.61;92.43
56944;BME280;42848;42.524;12.052;2023-03-05T02:32:11;96299.97;;;5.59;94.38
56944;BME280;42848;42.524;12.052;2023-03-05T02:34:38;96296.25;;;5.55;94.99
56944;BME280;42848;42.524;12.052;2023-03-05T02:37:05;96288.84;;;5.47;96.43
56944;BME280;42848;42.524;12.052;2023-03-05T02:39:33;96289.28;;;5.54;96.85
56944;BME280;42848;42.524;12.052;2023-03-05T02:41:59;96293.78;;;5.58;96.93
56944;BME280;42848;42.524;12.052;2023-03-05T02:44:25;96284.00;;;5.49;96.61
56944;BME280;42848;42.524;12.052;2023-03-05T02:46:51;96289.28;;;5.54;96.18
56944;BME280;42848;42.524;12.052;2023-03-05T02:49:17;96289.75;;;5.56;95.05
56944;BME280;42848;42.524;12.052;2023-03-05T02:51:43;96283.28;;;5.84;94.50
56944;BME280;42848;42.524;12.052;2023-03-05T02:54:08;96288.00;;;5.92;92.86
56944;BME280;42848;42.524;12.052;2023-03-05T02:56:34;96290.66;;;5.65;94.93
56944;BME280;42848;42.524;12.052;2023-03-05T02:59:02;96288.50;;;5.67;95.39
56944;BME280;42848;42.524;12.052;2023-03-05T03:01:28;96294.66;;;5.81;96.33
56944;BME280;42848;42.524;12.052;2023-03-05T03:03:53;96297.38;;;5.81;96.00
56944;BME280;42848;42.524;12.052;2023-03-05T03:06:19;96292.69;;;5.73;96.89
56944;BME280;42848;42.524;12.052;2023-03-05T03:08:45;96292.06;;;5.62;97.95
56944;BME280;42848;42.524;12.052;2023-03-05T03:11:11;96288.28;;;5.50;97.61
56944;BME280;42848;42.524;12.052;2023-03-05T03:13:38;96295.28;;;5.78;96.89
56944;BME280;42848;42.524;12.052;2023-03-05T03:16:05;96291.09;;;5.72;96.37
56944;BME280;42848;42.524;12.052;2023-03-05T03:18:32;96284.91;;;5.58;96.41
56944;BME280;42848;42.524;12.052;2023-03-05T03:20:58;96284.91;;;5.58;96.62
56944;BME280;42848;42.524;12.052;2023-03-05T03:23:24;96281.09;;;5.45;97.03
56944;BME280;42848;42.524;12.052;2023-03-05T03:25:50;96279.59;;;5.53;96.39
56944;BME280;42848;42.524;12.052;2023-03-05T03:28:16;96283.88;;;5.54;95.20
56944;BME280;42848;42.524;12.052;2023-03-05T03:30:41;96281.19;;;5.54;94.23
56944;BME280;42848;42.524;12.052;2023-03-05T03:33:07;96280.81;;;5.60;93.88
56944;BME280;42848;42.524;12.052;2023-03-05T03:35:33;96282.91;;;5.50;94.93
56944;BME280;42848;42.524;12.052;2023-03-05T03:37:58;96279.91;;;5.51;94.73
56944;BME280;42848;42.524;12.052;2023-03-05T03:40:24;96288.47;;;5.39;95.78
56944;BME280;42848;42.524;12.052;2023-03-05T03:42:53;96283.09;;;5.39;96.14
56944;BME280;42848;42.524;12.052;2023-03-05T03:45:19;96287.88;;;5.42;94.32
56944;BME280;42848;42.524;12.052;2023-03-05T03:47:49;96287.28;;;5.46;94.60
56944;BME280;42848;42.524;12.052;2023-03-05T03:50:15;96281.88;;;5.46;94.32
56944;BME280;42848;42.524;12.052;2023-03-05T03:52:40;96284.56;;;5.46;93.70
56944;BME280;42848;42.524;12.052;2023-03-05T03:55:07;96289.88;;;5.51;93.18
56944;BME280;42848;42.524;12.052;2023-03-05T03:57:32;96281.50;;;5.52;93.01
56944;BME280;42848;42.524;12.052;2023-03-05T03:59:59;96290.97;;;5.50;90.97
56944;BME280;42848;42.524;12.052;2023-03-05T04:02:25;96288.84;;;5.47;91.43
56944;BME280;42848;42.524;12.052;2023-03-05T04:04:51;96287.50;;;5.49;92.39
56944;BME280;42848;42.524;12.052;2023-03-05T04:07:17;96283.00;;;5.72;92.42
56944;BME280;42848;42.524;12.052;2023-03-05T04:09:43;96286.88;;;5.66;92.23
56944;BME280;42848;42.524;12.052;2023-03-05T04:12:09;96283.59;;;5.69;93.75
56944;BME280;42848;42.524;12.052;2023-03-05T04:14:35;96288.06;;;5.46;96.63
56944;BME280;42848;42.524;12.052;2023-03-05T04:17:01;96286.66;;;5.35;98.94
56944;BME280;42848;42.524;12.052;2023-03-05T04:19:26;96287.19;;;5.51;96.92
56944;BME280;42848;42.524;12.052;2023-03-05T04:21:56;96283.41;;;5.52;96.59
56944;BME280;42848;42.524;12.052;2023-03-05T04:24:22;96287.78;;;5.61;96.00
56944;BME280;42848;42.524;12.052;2023-03-05T04:26:48;96287.38;;;5.54;96.19
56944;BME280;42848;42.524;12.052;2023-03-05T04:29:13;96288.28;;;5.50;97.59
56944;BME280;42848;42.524;12.052;2023-03-05T04:31:39;96289.09;;;5.50;98.06
56944;BME280;42848;42.524;12.052;2023-03-05T04:34:05;96278.81;;;5.52;98.26
56944;BME280;42848;42.524;12.052;2023-03-05T04:36:31;96281.59;;;5.88;97.76
56944;BME280;42848;42.524;12.052;2023-03-05T04:38:56;96283.31;;;5.70;97.41
56944;BME280;42848;42.524;12.052;2023-03-05T04:41:22;96270.03;;;5.74;97.91
56944;BME280;42848;42.524;12.052;2023-03-05T04:43:47;96277.22;;;5.65;96.29
56944;BME280;42848;42.524;12.052;2023-03-05T04:46:13;96279.31;;;5.68;95.26
56944;BME280;42848;42.524;12.052;2023-03-05T04:48:38;96284.31;;;5.61;96.29
56944;BME280;42848;42.524;12.052;2023-03-05T04:51:04;96284.91;;;5.99;98.22
56944;BME280;42848;42.524;12.052;2023-03-05T04:53:30;96287.22;;;6.06;97.77
56944;BME280;42848;42.524;12.052;2023-03-05T04:55:55;96293.88;;;6.08;98.73
56944;BME280;42848;42.524;12.052;2023-03-05T04:58:22;96288.53;;;5.94;100.00
56944;BME280;42848;42.524;12.052;2023-03-05T05:00:48;96288.91;;;6.02;99.95
56944;BME280;42848;42.524;12.052;2023-03-05T05:03:14;96282.72;;;5.87;97.44
56944;BME280;42848;42.524;12.052;2023-03-05T05:05:39;96285.09;;;5.75;94.55
56944;BME280;42848;42.524;12.052;2023-03-05T05:08:05;96282.50;;;5.70;93.89
56944;BME280;42848;42.524;12.052;2023-03-05T05:10:30;96280.31;;;5.99;94.34
56944;BME280;42848;42.524;12.052;2023-03-05T05:12:56;96284.09;;;6.12;94.60
56944;BME280;42848;42.524;12.052;2023-03-05T05:15:22;96295.38;;;6.01;97.16
56944;BME280;42848;42.524;12.052;2023-03-05T05:17:48;96282.72;;;5.87;97.63
56944;BME280;42848;42.524;12.052;2023-03-05T05:20:15;96288.59;;;5.62;94.77
56944;BME280;42848;42.524;12.052;2023-03-05T05:22:41;96293.28;;;5.70;95.30
56944;BME280;42848;42.524;12.052;2023-03-05T05:25:07;96290.06;;;5.54;97.00
56944;BME280;42848;42.524;12.052;2023-03-05T05:27:35;96284.69;;;5.54;97.19
56944;BME280;42848;42.524;12.052;2023-03-05T05:30:00;96292.28;;;5.52;96.74
56944;BME280;42848;42.524;12.052;2023-03-05T05:32:26;96280.13;;;5.96;95.65
56944;BME280;42848;42.524;12.052;2023-03-05T05:34:56;96287.59;;;5.71;95.20
56944;BME280;42848;42.524;12.052;2023-03-05T05:37:23;96284.19;;;5.66;95.07
56944;BME280;42848;42.524;12.052;2023-03-05T05:39:49;96283.63;;;5.96;93.83
56944;BME280;42848;42.524;12.052;2023-03-05T05:42:16;96280.22;;;5.77;93.09
56944;BME280;42848;42.524;12.052;2023-03-05T05:44:43;96288.31;;;6.05;91.79
56944;BME280;42848;42.524;12.052;2023-03-05T05:47:09;96287.50;;;6.18;91.50
56944;BME280;42848;42.524;12.052;2023-03-05T05:49:34;96291.22;;;5.94;92.17
56944;BME280;42848;42.524;12.052;2023-03-05T05:52:00;96289.31;;;5.95;92.80
56944;BME280;42848;42.524;12.052;2023-03-05T05:54:26;96297.50;;;6.04;92.17
56944;BME280;42848;42.524;12.052;2023-03-05T05:56:51;96295.25;;;6.19;91.56
56944;BME280;42848;42.524;12.052;2023-03-05T05:59:17;96300.25;;;6.12;92.69
56944;BME280;42848;42.524;12.052;2023-03-05T06:01:43;96295.69;;;5.99;95.17
56944;BME280;42848;42.524;12.052;2023-03-05T06:04:08;96301.06;;;6.26;93.44
56944;BME280;42848;42.524;12.052;2023-03-05T06:06:34;96298.88;;;6.15;96.67
56944;BME280;42848;42.524;12.052;2023-03-05T06:09:00;96301.28;;;6.03;96.51
56944;BME280;42848;42.524;12.052;2023-03-05T06:11:26;96299.28;;;6.08;93.11
56944;BME280;42848;42.524;12.052;2023-03-05T06:13:51;96301.47;;;5.79;94.95
56944;BME280;42848;42.524;12.052;2023-03-05T06:16:21;96300.66;;;5.78;95.15
56944;BME280;42848;42.524;12.052;2023-03-05T06:18:49;96298.25;;;5.63;96.01
56944;BME280;42848;42.524;12.052;2023-03-05T06:21:17;96298.66;;;5.84;95.30
56944;BME280;42848;42.524;12.052;2023-03-05T06:23:44;96296.97;;;5.74;95.37
56944;BME280;42848;42.524;12.052;2023-03-05T06:26:11;96296.47;;;5.86;95.20
56944;BME280;42848;42.524;12.052;2023-03-05T06:28:38;96302.88;;;5.76;94.72
56944;BME280;42848;42.524;12.052;2023-03-05T06:31:09;96304.94;;;5.79;94.83
56944;BME280;42848;42.524;12.052;2023-03-05T06:33:36;96300.66;;;5.78;94.05
56944;BME280;42848;42.524;12.052;2023-03-05T06:36:06;96301.16;;;5.80;94.18
56944;BME280;42848;42.524;12.052;2023-03-05T06:38:33;96305.34;;;5.86;94.24
56944;BME280;42848;42.524;12.052;2023-03-05T06:41:03;96304.75;;;5.89;94.03
56944;BME280;42848;42.524;12.052;2023-03-05T06:43:31;96299.09;;;6.05;93.18
56944;BME280;42848;42.524;12.052;2023-03-05T06:46:12;96305.16;;;6.24;92.09
56944;BME280;42848;42.524;12.052;2023-03-05T06:48:39;96309.13;;;6.40;90.56
56944;BME280;42848;42.524;12.052;2023-03-05T06:51:12;96313.50;;;6.50;90.36
56944;BME280;42848;42.524;12.052;2023-03-05T06:53:39;96312.97;;;6.48;90.22
56944;BME280;42848;42.524;12.052;2023-03-05T06:56:04;96313.19;;;6.51;92.00
56944;BME280;42848;42.524;12.052;2023-03-05T06:58:30;96320.00;;;6.35;92.04
56944;BME280;42848;42.524;12.052;2023-03-05T07:00:56;96321.75;;;6.53;92.16
56944;BME280;42848;42.524;12.052;2023-03-05T07:03:21;96321.94;;;6.57;92.79
56944;BME280;42848;42.524;12.052;2023-03-05T07:05:47;96316.53;;;6.71;93.98
56944;BME280;42848;42.524;12.052;2023-03-05T07:08:12;96322.03;;;6.66;93.37
56944;BME280;42848;42.524;12.052;2023-03-05T07:10:39;96324.94;;;6.69;94.07
56944;BME280;42848;42.524;12.052;2023-03-05T07:13:06;96324.31;;;6.72;93.95
56944;BME280;42848;42.524;12.052;2023-03-05T07:15:32;96327.50;;;6.74;93.36
56944;BME280;42848;42.524;12.052;2023-03-05T07:17:58;96327.25;;;6.84;94.99
56944;BME280;42848;42.524;12.052;2023-03-05T07:20:24;96319.59;;;7.00;94.40
56944;BME280;42848;42.524;12.052;2023-03-05T07:22:50;96325.63;;;6.97;94.11
56944;BME280;42848;42.524;12.052;2023-03-05T07:25:16;96326.00;;;7.04;94.19
56944;BME280;42848;42.524;12.052;2023-03-05T07:27:47;96337.16;;;7.11;93.92
56944;BME280;42848;42.524;12.052;2023-03-05T07:30:13;96333.47;;;7.07;93.11
56944;BME280;42848;42.524;12.052;2023-03-05T07:32:39;96334.81;;;7.41;93.93
56944;BME280;42848;42.524;12.052;2023-03-05T07:35:05;96326.94;;;7.31;98.59
56944;BME280;42848;42.524;12.052;2023-03-05T07:37:31;96340.69;;;7.43;100.00
56944;BME280;42848;42.524;12.052;2023-03-05T07:39:57;96343.78;;;7.50;99.00
56944;BME280;42848;42.524;12.052;2023-03-05T07:42:22;96345.16;;;7.48;100.00
56944;BME280;42848;42.524;12.052;2023-03-05T07:44:48;96345.97;;;7.48;100.00
56944;BME280;42848;42.524;12.052;2023-03-05T07:47:14;96342.78;;;7.46;100.00
56944;BME280;42848;42.524;12.052;2023-03-05T07:49:40;96352.16;;;7.49;100.00
56944;BME280;42848;42.524;12.052;2023-03-05T07:52:07;96341.91;;;7.59;100.00
56944;BME280;42848;42.524;12.052;2023-03-05T07:54:33;96346.50;;;7.59;100.00
56944;BME280;42848;42.524;12.052;2023-03-05T07:57:03;96348.75;;;7.65;100.00
56944;BME280;42848;42.524;12.052;2023-03-05T07:59:29;96342.75;;;7.68;100.00
56944;BME280;42848;42.524;12.052;2023-03-05T08:01:54;96335.56;;;7.64;94.33
56944;BME280;42848;42.524;12.052;2023-03-05T08:04:20;96341.31;;;7.71;93.39
56944;BME280;42848;42.524;12.052;2023-03-05T08:06:45;96340.09;;;7.86;98.41
56944;BME280;42848;42.524;12.052;2023-03-05T08:09:11;96344.28;;;7.92;100.00
56944;BME280;42848;42.524;12.052;2023-03-05T08:11:38;96343.31;;;7.88;100.00
56944;BME280;42848;42.524;12.052;2023-03-05T08:14:04;96338.88;;;7.92;99.25
56944;BME280;42848;42.524;12.052;2023-03-05T08:16:31;96337.28;;;7.91;91.55
56944;BME280;42848;42.524;12.052;2023-03-05T08:18:57;96344.28;;;7.92;100.00
56944;BME280;42848;42.524;12.052;2023-03-05T08:21:26;96343.03;;;7.98;100.00
56944;BME280;42848;42.524;12.052;2023-03-05T08:23:54;96339.84;;;7.96;95.93
56944;BME280;42848;42.524;12.052;2023-03-05T08:26:23;96347.19;;;8.04;100.00
56944;BME280;42848;42.524;12.052;2023-03-05T08:28:50;96352.09;;;8.02;96.00
56944;BME280;42848;42.524;12.052;2023-03-05T08:31:18;96345.78;;;8.07;81.83
56944;BME280;42848;42.524;12.052;2023-03-05T08:33:47;96345.94;;;8.10;78.42
56944;BME280;42848;42.524;12.052;2023-03-05T08:36:13;96355.50;;;8.16;93.17
56944;BME280;42848;42.524;12.052;2023-03-05T08:38:38;96341.22;;;8.24;99.84
56944;BME280;42848;42.524;12.052;2023-03-05T08:41:04;96347.25;;;8.21;100.00
56944;BME280;42848;42.524;12.052;2023-03-05T08:43:30;96353.00;;;8.28;95.25
56944;BME280;42848;42.524;12.052;2023-03-05T08:45:59;96343.28;;;8.27;79.11
56944;BME280;42848;42.524;12.052;2023-03-05T08:48:25;96351.78;;;8.35;78.45
56944;BME280;42848;42.524;12.052;2023-03-05T08:50:50;96348.56;;;8.33;70.26
56944;BME280;42848;42.524;12.052;2023-03-05T08:53:17;96348.91;;;8.40;66.34
56944;BME280;42848;42.524;12.052;2023-03-05T08:55:43;96341.31;;;8.42;68.51
56944;BME280;42848;42.524;12.052;2023-03-05T08:58:09;96342.25;;;8.46;67.43
56944;BME280;42848;42.524;12.052;2023-03-05T09:00:34;96337.19;;;8.53;63.87
56944;BME280;42848;42.524;12.052;2023-03-05T09:03:00;96352.00;;;8.64;77.24
56944;BME280;42848;42.524;12.052;2023-03-05T09:05:25;96342.59;;;8.53;64.80
56944;BME280;42848;42.524;12.052;2023-03-05T09:07:51;96347.53;;;8.68;68.86
56944;BME280;42848;42.524;12.052;2023-03-05T09:10:16;96346.75;;;8.76;80.08
56944;BME280;42848;42.524;12.052;2023-03-05T09:12:43;96338.63;;;8.68;71.74
56944;BME280;42848;42.524;12.052;2023-03-05T09:15:10;96332.72;;;8.66;68.93
56944;BME280;42848;42.524;12.052;2023-03-05T09:17:37;96343.22;;;8.67;68.85
56944;BME280;42848;42.524;12.052;2023-03-05T09:20:04;96332.59;;;8.71;68.08
56944;BME280;42848;42.524;12.052;2023-03-05T09:22:30;96336.72;;;8.77;66.04
56944;BME280;42848;42.524;12.052;2023-03-05T09:24:56;96337.03;;;8.75;59.55
56944;BME280;42848;42.524;12.052;2023-03-05T09:27:23;96341.03;;;8.87;63.90
56944;BME280;42848;42.524;12.052;2023-03-05T09:29:49;96345.00;;;8.80;64.71
56944;BME280;42848;42.524;12.052;2023-03-05T09:32:14;96343.59;;;8.92;64.55
56944;BME280;42848;42.524;12.052;2023-03-05T09:34:40;96344.53;;;8.96;60.85
56944;BME280;42848;42.524;12.052;2023-03-05T09:37:07;96346.59;;;8.90;61.17
56944;BME280;42848;42.524;12.052;2023-03-05T09:39:33;96344.84;;;8.86;63.42
56944;BME280;42848;42.524;12.052;2023-03-05T09:52:53;96341.19;;;9.25;69.28
56944;BME280;42848;42.524;12.052;2023-03-05T09:55:34;96345.16;;;9.27;66.12
56944;BME280;42848;42.524;12.052;2023-03-05T09:58:05;96334.19;;;9.24;66.61
56944;BME280;42848;42.524;12.052;2023-03-05T10:00:40;96341.19;;;9.25;66.83
56944;BME280;42848;42.524;12.052;2023-03-05T10:03:29;96334.97;;;9.24;67.72
56944;BME280;42848;42.524;12.052;2023-03-05T10:13:59;96335.25;;;9.31;69.98
56944;BME280;42848;42.524;12.052;2023-03-05T10:17:15;96334.94;;;9.41;66.34
56944;BME280;42848;42.524;12.052;2023-03-05T10:22:41;96336.19;;;9.53;74.44
56944;BME280;42848;42.524;12.052;2023-03-05T10:25:25;96337.78;;;9.54;72.18
56944;BME280;42848;42.524;12.052;2023-03-05T10:28:04;96342.31;;;9.88;100.00
56944;BME280;42848;42.524;12.052;2023-03-05T10:36:31;96337.97;;;9.95;87.49
56944;BME280;42848;42.524;12.052;2023-03-05T10:44:35;96344.41;;;9.82;73.96
56944;BME280;42848;42.524;12.052;2023-03-05T10:47:02;96343.28;;;9.83;69.38
56944;BME280;42848;42.524;12.052;2023-03-05T10:49:31;96336.75;;;9.84;70.56
56944;BME280;42848;42.524;12.052;2023-03-05T10:52:10;96334.97;;;9.97;76.12
56944;BME280;42848;42.524;12.052;2023-03-05T10:54:38;96331.91;;;9.98;72.02
56944;BME280;42848;42.524;12.052;2023-03-05T10:57:39;96332.19;;;10.06;71.19
56944;BME280;42848;42.524;12.052;2023-03-05T11:02:31;96335.56;;;10.03;71.10
56944;BME280;42848;42.524;12.052;2023-03-05T11:04:57;96329.53;;;9.97;66.21
56944;BME280;42848;42.524;12.052;2023-03-05T11:10:13;96316.38;;;10.16;69.75
56944;BME280;42848;42.524;12.052;2023-03-05T11:12:39;96323.53;;;10.12;68.97
56944;BME280;42848;42.524;12.052;2023-03-05T11:15:22;96324.00;;;10.14;68.86
56944;BME280;42848;42.524;12.052;2023-03-05T11:18:10;96314.28;;;10.22;71.40
56944;BME280;42848;42.524;12.052;2023-03-05T11:20:39;96310.59;;;10.18;67.63
56944;BME280;42848;42.524;12.052;2023-03-05T11:25:34;96308.97;;;10.34;68.29
56944;BME280;42848;42.524;12.052;2023-03-05T11:28:02;96290.75;;;10.35;69.88
56944;BME280;42848;42.524;12.052;2023-03-05T11:30:31;96288.91;;;10.47;67.23
56944;BME280;42848;42.524;12.052;2023-03-05T11:33:16;96289.75;;;10.39;67.10
56944;BME280;42848;42.524;12.052;2023-03-05T11:35:48;96283.50;;;10.47;63.61
56944;BME280;42848;42.524;12.052;2023-03-05T11:38:25;96289.03;;;10.51;67.01
56944;BME280;42848;42.524;12.052;2023-03-05T11:40:54;96281.44;;;10.65;63.00
56944;BME280;42848;42.524;12.052;2023-03-05T11:43:23;96270.66;;;10.57;63.48
56944;BME280;42848;42.524;12.052;2023-03-05T11:46:01;96273.19;;;10.62;62.97
56944;BME280;42848;42.524;12.052;2023-03-05T11:48:33;96280.19;;;10.63;64.78
56944;BME280;42848;42.524;12.052;2023-03-05T11:51:01;96278.66;;;10.74;64.20
56944;BME280;42848;42.524;12.052;2023-03-05T11:53:34;96279.78;;;10.73;61.15
56944;BME280;42848;42.524;12.052;2023-03-05T11:56:21;96276.03;;;10.65;60.86
56944;BME280;42848;42.524;12.052;2023-03-05T11:58:59;96262.19;;;10.58;58.62
56944;BME280;42848;42.524;12.052;2023-03-05T12:01:30;96269.97;;;10.60;60.73
56944;BME280;42848;42.524;12.052;2023-03-05T12:03:57;96266.16;;;10.61;63.02
56944;BME280;42848;42.524;12.052;2023-03-05T12:09:40;96251.47;;;10.62;61.94
56944;BME280;42848;42.524;12.052;2023-03-05T12:13:03;96240.47;;;10.58;62.68
56944;BME280;42848;42.524;12.052;2023-03-05T12:18:26;96239.94;;;10.65;65.51
56944;BME280;42848;42.524;12.052;2023-03-05T12:21:05;96240.47;;;10.79;65.19
56944;BME280;42848;42.524;12.052;2023-03-05T12:23:49;96223.63;;;10.86;65.19
56944;BME280;42848;42.524;12.052;2023-03-05T12:26:15;96236.63;;;10.80;62.74
56944;BME280;42848;42.524;12.052;2023-03-05T12:31:34;96227.66;;;11.00;67.05
56944;BME280;42848;42.524;12.052;2023-03-05T12:34:44;96224.06;;;11.08;68.18
56944;BME280;42848;42.524;12.052;2023-03-05T12:39:58;96220.81;;;10.94;62.18
56944;BME280;42848;42.524;12.052;2023-03-05T12:47:48;96215.81;;;10.84;71.33
56944;BME280;42848;42.524;12.052;2023-03-05T12:56:00;96204.78;;;11.01;70.43
56944;BME280;42848;42.524;12.052;2023-03-05T13:01:15;96213.56;;;11.19;68.11
56944;BME280;42848;42.524;12.052;2023-03-05T13:03:51;96203.16;;;11.33;68.95
56944;BME280;42848;42.524;12.052;2023-03-05T13:06:34;96209.56;;;11.74;74.95
56944;BME280;42848;42.524;12.052;2023-03-05T13:09:06;96201.28;;;11.58;74.43
56944;BME280;42848;42.524;12.052;2023-03-05T13:11:35;96203.31;;;11.74;72.20
56944;BME280;42848;42.524;12.052;2023-03-05T13:14:02;96204.47;;;11.97;71.89
56944;BME280;42848;42.524;12.052;2023-03-05T13:16:34;96204.22;;;11.78;76.20
56944;BME280;42848;42.524;12.052;2023-03-05T13:19:01;96204.72;;;11.92;78.32
56944;BME280;42848;42.524;12.052;2023-03-05T13:21:31;96203.56;;;12.05;77.82
56944;BME280;42848;42.524;12.052;2023-03-05T13:24:00;96203.78;;;11.76;74.49
56944;BME280;42848;42.524;12.052;2023-03-05T13:26:27;96203.13;;;11.91;77.17
56944;BME280;42848;42.524;12.052;2023-03-05T13:29:10;96213.09;;;12.11;77.47
56944;BME280;42848;42.524;12.052;2023-03-05T13:31:47;96208.78;;;11.86;76.67
56944;BME280;42848;42.524;12.052;2023-03-05T13:34:20;96204.47;;;12.09;79.57
56944;BME280;42848;42.524;12.052;2023-03-05T13:39:33;96210.78;;;12.38;82.12
56944;BME280;42848;42.524;12.052;2023-03-05T13:42:14;96208.06;;;12.38;83.99
56944;BME280;42848;42.524;12.052;2023-03-05T13:44:41;96207.25;;;12.25;84.81
56944;BME280;42848;42.524;12.052;2023-03-05T13:47:18;96213.94;;;12.40;91.14
56944;BME280;42848;42.524;12.052;2023-03-05T13:49:44;96221.72;;;11.89;93.15
56944;BME280;42848;42.524;12.052;2023-03-05T13:52:12;96210.56;;;11.57;97.28
56944;BME280;42848;42.524;12.052;2023-03-05T13:54:48;96213.28;;;11.45;100.00
56944;BME280;42848;42.524;12.052;2023-03-05T13:57:37;96214.72;;;11.43;100.00
56944;BME280;42848;42.524;12.052;2023-03-05T14:00:22;96212.59;;;11.48;100.00
56944;BME280;42848;42.524;12.052;2023-03-05T14:02:54;96217.84;;;11.20;100.00
56944;BME280;42848;42.524;12.052;2023-03-05T14:05:20;96217.56;;;11.46;100.00
56944;BME280;42848;42.524;12.052;2023-03-05T14:07:50;96209.69;;;11.08;100.00
56944;BME280;42848;42.524;12.052;2023-03-05T14:10:35;96220.78;;;11.15;100.00
56944;BME280;42848;42.524;12.052;2023-03-05T14:13:04;96213.22;;;11.21;100.00
56944;BME280;42848;42.524;12.052;2023-03-05T14:15:33;96211.88;;;11.27;100.00